createdAt,value
2017-11-25T00:01:32.075Z,11.20
2017-11-25T00:03:59.523Z,11.20
2017-11-25T00:06:27.002Z,11.20
2017-11-25T00:08:54.464Z,11.20
2017-11-25T00:11:22.703Z,11.20
2017-11-25T00:13:50.174Z,11.10
2017-11-25T00:16:18.433Z,11.10
2017-11-25T00:18:45.887Z,11.10
2017-11-25T00:21:13.347Z,11.10
2017-11-25T00:23:40.828Z,11.10
2017-11-25T00:26:08.308Z,11.10
2017-11-25T00:28:36.527Z,11.10
2017-11-25T00:31:03.999Z,11.10
2017-11-25T00:33:31.479Z,11.20
2017-11-25T00:35:59.711Z,11.20
2017-11-25T00:38:27.198Z,11.20
2017-11-25T00:40:54.653Z,11.20
2017-11-25T00:43:22.135Z,11.20
2017-11-25T00:45:49.574Z,11.20
2017-11-25T00:48:17.052Z,11.20
2017-11-25T00:50:44.522Z,11.20
2017-11-25T00:53:11.988Z,11.20
2017-11-25T00:55:39.451Z,11.20
2017-11-25T00:58:07.695Z,11.20
2017-11-25T01:00:35.162Z,11.10
2017-11-25T01:03:02.650Z,11.20
2017-11-25T01:05:30.122Z,11.20
2017-11-25T01:07:57.603Z,11.20
2017-11-25T01:10:25.087Z,11.20
2017-11-25T01:12:53.323Z,11.10
2017-11-25T01:15:21.567Z,11.20
2017-11-25T01:17:49.054Z,11.10
2017-11-25T01:20:16.524Z,11.20
2017-11-25T01:22:44.753Z,11.30
2017-11-25T01:25:13.010Z,11.20
2017-11-25T01:27:41.261Z,11.30
2017-11-25T01:30:08.727Z,11.20
2017-11-25T01:32:36.967Z,11.30
2017-11-25T01:35:04.450Z,11.30
2017-11-25T01:37:31.934Z,11.20
2017-11-25T01:40:00.162Z,11.20
2017-11-25T01:42:28.620Z,11.20
2017-11-25T01:44:56.084Z,11.20
2017-11-25T01:47:23.566Z,11.10
2017-11-25T01:49:51.815Z,11.20
2017-11-25T01:52:19.300Z,11.10
2017-11-25T01:54:46.766Z,11.20
2017-11-25T01:57:14.237Z,11.10
2017-11-25T01:59:42.483Z,11.20
2017-11-25T02:02:11.100Z,11.10
2017-11-25T02:04:38.562Z,11.10
2017-11-25T02:07:06.030Z,11.10
2017-11-25T02:09:34.267Z,11.10
2017-11-25T02:12:02.523Z,11.20
2017-11-25T02:14:29.990Z,11.20
2017-11-25T02:16:57.459Z,11.10
2017-11-25T02:19:24.935Z,11.00
2017-11-25T02:21:52.390Z,10.80
2017-11-25T02:24:19.886Z,10.80
2017-11-25T02:26:47.353Z,10.70
2017-11-25T02:29:14.810Z,10.80
2017-11-25T02:31:42.276Z,10.90
2017-11-25T02:34:09.742Z,10.90
2017-11-25T02:36:37.210Z,10.80
2017-11-25T02:39:05.448Z,10.80
2017-11-25T02:41:33.665Z,10.80
2017-11-25T02:44:01.130Z,10.70
2017-11-25T02:46:29.360Z,10.70
2017-11-25T02:48:56.829Z,10.70
2017-11-25T02:51:24.292Z,10.70
2017-11-25T02:53:51.767Z,10.70
2017-11-25T02:56:19.247Z,10.70
2017-11-25T02:58:46.731Z,10.60
2017-11-25T03:01:14.207Z,10.70
2017-11-25T03:03:41.661Z,10.60
2017-11-25T03:06:09.132Z,10.60
2017-11-25T03:08:37.375Z,10.60
2017-11-25T03:11:05.625Z,10.60
2017-11-25T03:13:33.090Z,10.60
2017-11-25T03:16:00.558Z,10.50
2017-11-25T03:18:28.820Z,10.60
2017-11-25T03:20:56.299Z,10.60
2017-11-25T03:23:23.762Z,10.60
2017-11-25T03:25:51.254Z,10.60
2017-11-25T03:28:19.483Z,10.50
2017-11-25T03:30:46.943Z,10.50
2017-11-25T03:33:14.405Z,10.60
2017-11-25T03:35:41.867Z,10.60
2017-11-25T03:38:09.337Z,10.60
2017-11-25T03:40:36.813Z,10.40
2017-11-25T03:43:04.266Z,10.40
2017-11-25T03:45:31.737Z,10.50
2017-11-25T03:47:59.201Z,10.60
2017-11-25T03:50:26.691Z,10.50
2017-11-25T03:52:55.326Z,10.30
2017-11-25T03:55:22.782Z,10.30
2017-11-25T03:57:51.019Z,10.20
2017-11-25T04:00:18.492Z,10.20
2017-11-25T04:02:46.718Z,10.20
2017-11-25T04:05:14.191Z,10.10
2017-11-25T04:07:41.644Z,10.10
2017-11-25T04:10:09.139Z,10.00
2017-11-25T04:12:36.583Z,10.00
2017-11-25T04:15:04.197Z,10.00
2017-11-25T04:17:31.696Z,10.10
2017-11-25T04:19:59.180Z,10.10
2017-11-25T04:22:26.655Z,10.00
2017-11-25T04:24:54.114Z,10.00
2017-11-25T04:27:21.592Z,10.00
2017-11-25T04:29:49.815Z,9.90
2017-11-25T04:32:18.047Z,9.90
2017-11-25T04:34:46.266Z,9.90
2017-11-25T04:37:13.964Z,9.80
2017-11-25T04:39:41.425Z,9.90
2017-11-25T04:42:08.911Z,9.90
2017-11-25T04:44:36.371Z,9.80
2017-11-25T04:47:03.824Z,9.90
2017-11-25T04:49:31.283Z,9.90
2017-11-25T04:51:58.759Z,10.00
2017-11-25T04:54:26.221Z,10.00
2017-11-25T04:56:53.689Z,10.20
2017-11-25T04:59:21.146Z,10.30
2017-11-25T05:01:48.605Z,10.30
2017-11-25T05:04:16.085Z,10.40
2017-11-25T05:06:44.314Z,10.20
2017-11-25T05:09:11.791Z,10.20
2017-11-25T05:11:39.257Z,10.20
2017-11-25T05:14:06.734Z,10.30
2017-11-25T05:16:34.222Z,10.30
2017-11-25T05:19:02.466Z,10.20
2017-11-25T05:21:29.941Z,10.20
2017-11-25T05:23:57.394Z,10.20
2017-11-25T05:26:24.898Z,10.20
2017-11-25T05:28:53.128Z,10.20
2017-11-25T05:31:20.591Z,10.20
2017-11-25T05:33:48.830Z,10.20
2017-11-25T05:36:16.292Z,10.20
2017-11-25T05:38:43.762Z,10.20
2017-11-25T05:41:11.247Z,10.30
2017-11-25T06:00:56.456Z,10.00
2017-11-25T06:03:23.930Z,10.10
2017-11-25T06:05:51.411Z,10.00
2017-11-25T06:08:19.682Z,10.00
2017-11-25T06:10:47.155Z,10.00
2017-11-25T06:13:14.630Z,10.00
2017-11-25T06:15:42.099Z,9.90
2017-11-25T06:18:09.558Z,9.90
2017-11-25T06:20:37.045Z,9.80
2017-11-25T06:23:05.284Z,9.70
2017-11-25T06:25:32.751Z,9.60
2017-11-25T06:28:00.267Z,9.60
2017-11-25T06:30:27.774Z,9.70
2017-11-25T06:32:55.248Z,9.80
2017-11-25T06:35:22.705Z,9.80
2017-11-25T06:37:50.184Z,9.70
2017-11-25T06:40:17.631Z,9.70
2017-11-25T06:42:45.114Z,9.60
2017-11-25T06:45:12.922Z,9.60
2017-11-25T06:47:40.586Z,9.60
2017-11-25T06:50:08.056Z,9.60
2017-11-25T06:52:35.534Z,9.60
2017-11-25T06:55:04.110Z,9.60
2017-11-25T06:57:31.562Z,9.60
2017-11-25T06:59:59.042Z,9.70
2017-11-25T07:02:26.510Z,9.70
2017-11-25T07:04:53.983Z,9.60
2017-11-25T07:07:21.727Z,9.60
2017-11-25T07:09:49.214Z,9.60
2017-11-25T07:12:16.673Z,9.50
2017-11-25T07:14:44.162Z,9.50
2017-11-25T07:17:11.635Z,9.40
2017-11-25T07:19:39.880Z,9.20
2017-11-25T07:22:07.338Z,9.20
2017-11-25T07:27:25.694Z,9.20
2017-11-25T07:29:53.159Z,9.10
2017-11-25T07:32:20.627Z,9.10
2017-11-25T07:34:48.915Z,9.10
2017-11-25T07:37:16.376Z,9.10
2017-11-25T07:39:43.859Z,9.00
2017-11-25T07:42:12.112Z,9.00
2017-11-25T07:44:39.611Z,9.00
2017-11-25T07:47:07.844Z,9.00
2017-11-25T07:49:35.319Z,8.90
2017-11-25T07:52:02.793Z,9.00
2017-11-25T07:54:30.289Z,8.90
2017-11-25T07:56:58.517Z,8.80
2017-11-25T07:59:26.827Z,8.80
2017-11-25T08:01:54.291Z,8.70
2017-11-25T08:04:21.770Z,8.70
2017-11-25T08:06:50.220Z,8.60
2017-11-25T08:09:17.699Z,8.60
2017-11-25T08:11:45.176Z,8.60
2017-11-25T08:14:13.463Z,8.60
2017-11-25T08:16:41.712Z,8.60
2017-11-25T08:19:09.173Z,8.60
2017-11-25T08:21:36.638Z,8.60
2017-11-25T08:24:04.384Z,8.60
2017-11-25T08:26:31.909Z,8.70
2017-11-25T08:28:59.384Z,8.70
2017-11-25T08:31:26.950Z,8.70
2017-11-25T08:33:54.409Z,8.70
2017-11-25T08:36:22.098Z,8.60
2017-11-25T08:38:49.575Z,8.70
2017-11-25T08:41:17.032Z,8.70
2017-11-25T08:43:44.509Z,8.70
2017-11-25T08:46:11.994Z,8.70
2017-11-25T08:48:39.796Z,8.70
2017-11-25T08:51:07.287Z,8.70
2017-11-25T08:53:35.004Z,8.60
2017-11-25T08:56:02.481Z,8.60
2017-11-25T08:58:30.744Z,8.60
2017-11-25T09:00:58.201Z,8.60
2017-11-25T09:03:25.668Z,8.50
2017-11-25T09:05:53.127Z,8.60
2017-11-25T09:08:20.586Z,8.60
2017-11-25T09:10:48.066Z,8.40
2017-11-25T09:13:15.570Z,8.60
2017-11-25T09:15:43.047Z,8.50
2017-11-25T09:18:10.519Z,8.50
2017-11-25T09:20:37.999Z,8.50
2017-11-25T09:23:05.463Z,8.40
2017-11-25T09:25:32.940Z,8.30
2017-11-25T09:28:00.407Z,8.40
2017-11-25T09:30:28.644Z,8.60
2017-11-25T09:32:56.102Z,8.60
2017-11-25T09:35:24.348Z,8.60
2017-11-25T09:37:52.589Z,8.50
2017-11-25T09:40:20.843Z,8.60
2017-11-25T09:42:49.070Z,8.60
2017-11-25T09:45:17.314Z,8.50
2017-11-25T09:47:44.814Z,8.50
2017-11-25T09:50:13.046Z,8.50
2017-11-25T09:52:40.531Z,8.50
2017-11-25T09:55:09.491Z,8.50
2017-11-25T09:57:36.971Z,8.50
2017-11-25T10:00:04.430Z,8.50
2017-11-25T10:02:31.992Z,8.50
2017-11-25T10:04:59.441Z,8.50
2017-11-25T10:07:27.212Z,8.40
2017-11-25T10:09:54.685Z,8.50
2017-11-25T10:12:22.154Z,8.50
2017-11-25T10:14:49.614Z,8.40
2017-11-25T10:17:17.102Z,8.40
2017-11-25T10:19:44.556Z,8.40
2017-11-25T10:22:12.030Z,8.40
2017-11-25T10:24:39.494Z,8.40
2017-11-25T10:27:06.963Z,8.40
2017-11-25T10:29:34.415Z,8.40
2017-11-25T10:32:01.883Z,8.30
2017-11-25T10:34:30.138Z,8.30
2017-11-25T10:36:57.601Z,8.30
2017-11-25T10:39:25.066Z,8.30
2017-11-25T10:41:52.565Z,8.20
2017-11-25T10:44:20.467Z,8.30
2017-11-25T10:46:48.140Z,8.30
2017-11-25T10:49:15.601Z,8.30
2017-11-25T10:51:43.070Z,8.20
2017-11-25T10:54:10.539Z,8.20
2017-11-25T10:56:38.012Z,8.20
2017-11-25T10:59:05.858Z,8.30
2017-11-25T11:01:33.351Z,8.30
2017-11-25T11:04:00.826Z,8.20
2017-11-25T11:06:28.283Z,8.10
2017-11-25T11:08:55.750Z,8.10
2017-11-25T11:11:23.221Z,8.10
2017-11-25T11:13:50.729Z,8.10
2017-11-25T11:16:18.603Z,8.00
2017-11-25T11:18:46.076Z,8.00
2017-11-25T11:21:13.545Z,8.00
2017-11-25T11:23:41.013Z,8.10
2017-11-25T11:26:08.488Z,8.10
2017-11-25T11:28:35.956Z,8.10
2017-11-25T11:31:03.408Z,7.90
2017-11-25T11:33:30.870Z,8.00
2017-11-25T11:35:58.328Z,8.00
2017-11-25T11:38:25.812Z,8.00
2017-11-25T11:40:53.287Z,8.10
2017-11-25T11:43:21.652Z,8.10
2017-11-25T11:45:49.118Z,8.10
2017-11-25T11:48:17.839Z,8.00
2017-11-25T11:50:46.072Z,8.00
2017-11-25T11:53:13.572Z,8.00
2017-11-25T11:55:41.809Z,8.10
2017-11-25T11:58:09.343Z,8.10
2017-11-25T12:00:36.823Z,8.10
2017-11-25T12:03:04.306Z,8.10
2017-11-25T12:05:32.051Z,8.10
2017-11-25T12:07:59.537Z,8.00
2017-11-25T12:10:27.020Z,8.00
2017-11-25T12:12:54.503Z,8.00
2017-11-25T12:15:21.957Z,8.20
2017-11-25T12:17:49.444Z,8.20
2017-11-25T12:20:17.667Z,8.30
2017-11-25T12:22:45.118Z,8.20
2017-11-25T12:25:12.595Z,8.30
2017-11-25T12:27:40.031Z,8.30
2017-11-25T12:30:07.497Z,8.40
2017-11-25T12:32:34.961Z,8.40
2017-11-25T12:35:03.253Z,8.50
2017-11-25T12:37:30.727Z,8.40
2017-11-25T12:39:58.181Z,8.50
2017-11-25T12:42:25.842Z,8.60
2017-11-25T12:44:53.695Z,8.70
2017-11-25T12:47:21.162Z,8.60
2017-11-25T12:49:48.653Z,8.60
2017-11-25T12:52:16.118Z,8.60
2017-11-25T12:54:43.578Z,8.50
2017-11-25T12:57:11.034Z,8.70
2017-11-25T12:59:38.502Z,8.80
2017-11-25T13:02:05.965Z,8.80
2017-11-25T13:04:33.430Z,8.80
2017-11-25T13:07:01.282Z,8.70
2017-11-25T13:09:28.730Z,8.70
2017-11-25T13:11:56.194Z,8.70
2017-11-25T13:14:23.673Z,8.80
2017-11-25T13:16:51.152Z,8.60
2017-11-25T13:19:18.615Z,8.70
2017-11-25T13:21:46.076Z,8.80
2017-11-25T13:24:13.533Z,8.70
2017-11-25T13:26:40.995Z,8.70
2017-11-25T13:29:08.525Z,8.70
2017-11-25T13:31:36.008Z,8.70
2017-11-25T13:34:03.467Z,8.60
2017-11-25T13:36:30.922Z,8.40
2017-11-25T13:38:58.432Z,8.40
2017-11-25T13:41:25.880Z,8.50
2017-11-25T13:43:53.343Z,8.50
2017-11-25T13:46:21.171Z,8.60
2017-11-25T13:48:48.612Z,8.60
2017-11-25T13:51:16.862Z,8.60
2017-11-25T13:53:44.335Z,8.60
2017-11-25T13:56:11.882Z,8.60
2017-11-25T13:58:39.346Z,8.60
2017-11-25T14:01:06.799Z,8.60
2017-11-25T14:03:34.741Z,8.60
2017-11-25T14:06:02.210Z,8.50
2017-11-25T14:08:30.075Z,7.80
2017-11-25T14:10:57.566Z,7.60
2017-11-25T14:13:25.059Z,7.40
2017-11-25T14:15:53.311Z,7.20
2017-11-25T14:18:20.784Z,7.20
2017-11-25T14:20:48.277Z,7.20
2017-11-25T14:23:16.518Z,7.10
2017-11-25T14:25:43.990Z,7.10
2017-11-25T14:28:11.477Z,7.10
2017-11-25T14:30:39.724Z,7.20
2017-11-25T14:33:07.197Z,7.20
2017-11-25T14:35:34.642Z,7.30
2017-11-25T14:38:02.113Z,7.10
2017-11-25T14:40:29.576Z,7.10
2017-11-25T14:42:57.062Z,7.10
2017-11-25T14:45:24.523Z,7.10
2017-11-25T14:47:52.007Z,7.20
2017-11-25T14:50:20.242Z,7.20
2017-11-25T14:52:47.732Z,7.20
2017-11-25T14:55:15.170Z,7.30
2017-11-25T14:57:42.623Z,7.20
2017-11-25T15:00:10.366Z,7.20
2017-11-25T15:02:37.828Z,7.40
2017-11-25T15:05:05.278Z,7.40
2017-11-25T15:07:32.759Z,7.30
2017-11-25T15:10:00.225Z,7.40
2017-11-25T15:12:27.698Z,7.40
2017-11-25T15:14:55.155Z,7.30
2017-11-25T15:17:22.626Z,7.40
2017-11-25T15:19:50.105Z,7.40
2017-11-25T15:22:17.567Z,7.40
2017-11-25T15:24:45.067Z,7.50
2017-11-25T15:27:12.575Z,7.50
2017-11-25T15:29:40.031Z,7.40
2017-11-25T15:32:07.509Z,7.40
2017-11-25T15:34:34.982Z,7.40
2017-11-25T15:37:02.445Z,7.30
2017-11-25T15:39:29.951Z,7.30
2017-11-25T15:41:58.187Z,7.30
2017-11-25T15:44:25.677Z,7.30
2017-11-25T15:46:53.133Z,7.20
2017-11-25T15:49:20.662Z,7.20
2017-11-25T15:51:48.111Z,7.10
2017-11-25T15:54:15.677Z,7.20
2017-11-25T15:56:43.118Z,7.10
2017-11-25T15:59:10.604Z,7.10
2017-11-25T16:01:38.082Z,7.10
2017-11-25T16:04:05.566Z,7.20
2017-11-25T16:06:33.034Z,7.10
2017-11-25T16:09:00.512Z,7.20
2017-11-25T16:11:28.753Z,7.20
2017-11-25T16:13:56.227Z,7.20
2017-11-25T16:16:24.464Z,7.20
2017-11-25T16:18:51.965Z,7.20
2017-11-25T16:21:19.438Z,7.20
2017-11-25T16:23:46.908Z,7.10
2017-11-25T16:26:14.366Z,7.10
2017-11-25T16:28:41.977Z,7.10
2017-11-25T16:31:09.447Z,7.20
2017-11-25T16:33:36.943Z,7.10
2017-11-25T16:36:04.423Z,7.20
2017-11-25T16:38:32.673Z,7.10
2017-11-25T16:41:00.131Z,7.00
2017-11-25T16:43:27.613Z,7.10
2017-11-25T16:45:55.096Z,7.10
2017-11-25T16:48:22.810Z,7.20
2017-11-25T16:50:51.007Z,7.10
2017-11-25T16:53:18.464Z,7.00
2017-11-25T16:55:45.968Z,7.10
2017-11-25T16:58:13.443Z,7.00
2017-11-25T17:00:41.756Z,7.00
2017-11-25T17:03:09.223Z,7.00
2017-11-25T17:05:36.754Z,7.10
2017-11-25T17:08:04.994Z,7.00
2017-11-25T17:10:32.472Z,7.00
2017-11-25T17:12:59.982Z,7.00
2017-11-25T17:15:27.441Z,7.00
2017-11-25T17:17:55.836Z,7.00
2017-11-25T17:20:23.310Z,6.90
2017-11-25T17:22:50.770Z,7.00
2017-11-25T17:25:18.253Z,6.90
2017-11-25T17:27:45.705Z,6.90
2017-11-25T17:30:13.193Z,6.80
2017-11-25T17:32:41.434Z,6.90
2017-11-25T17:35:08.913Z,6.80
2017-11-25T17:37:36.379Z,6.80
2017-11-25T17:40:03.854Z,6.70
2017-11-25T17:42:31.319Z,6.80
2017-11-25T17:44:58.787Z,6.80
2017-11-25T17:47:26.246Z,6.80
2017-11-25T17:49:53.717Z,6.60
2017-11-25T17:52:21.162Z,6.60
2017-11-25T17:54:48.644Z,6.70
2017-11-25T17:57:16.913Z,6.70
2017-11-25T17:59:44.383Z,6.70
2017-11-25T18:02:11.847Z,6.70
2017-11-25T18:04:39.307Z,6.70
2017-11-25T18:07:06.875Z,6.70
2017-11-25T18:09:34.317Z,6.60
2017-11-25T18:12:01.789Z,6.50
2017-11-25T18:14:29.266Z,6.60
2017-11-25T18:16:56.746Z,6.60
2017-11-25T18:19:24.985Z,6.70
2017-11-25T18:21:52.480Z,6.70
2017-11-25T18:24:20.719Z,6.80
2017-11-25T18:26:48.193Z,6.80
2017-11-25T18:29:15.748Z,6.70
2017-11-25T18:31:43.415Z,6.80
2017-11-25T18:34:10.887Z,6.70
2017-11-25T18:36:38.368Z,6.70
2017-11-25T18:39:06.182Z,6.70
2017-11-25T18:41:33.651Z,6.50
2017-11-25T18:44:01.125Z,6.70
2017-11-25T18:46:28.895Z,6.70
2017-11-25T18:48:56.348Z,6.70
2017-11-25T18:51:23.812Z,6.70
2017-11-25T18:53:51.265Z,6.70
2017-11-25T18:56:18.758Z,6.60
2017-11-25T18:58:46.224Z,6.50
2017-11-25T19:01:13.698Z,6.60
2017-11-25T19:03:41.213Z,6.50
2017-11-25T19:06:08.678Z,6.60
2017-11-25T19:08:36.153Z,6.50
2017-11-25T19:11:03.620Z,6.40
2017-11-25T19:13:31.087Z,6.50
2017-11-25T19:15:58.556Z,6.50
2017-11-25T19:18:26.024Z,6.50
2017-11-25T19:20:53.500Z,6.50
2017-11-25T19:23:20.956Z,6.40
2017-11-25T19:25:48.407Z,6.40
2017-11-25T19:28:16.661Z,6.40
2017-11-25T19:30:44.136Z,6.40
2017-11-25T19:33:11.642Z,6.30
2017-11-25T19:35:39.120Z,6.30
2017-11-25T19:38:07.362Z,6.30
2017-11-25T19:40:34.813Z,6.30
2017-11-25T19:43:02.294Z,6.30
2017-11-25T19:45:29.764Z,6.30
2017-11-25T19:47:57.226Z,6.50
2017-11-25T19:50:24.690Z,6.40
2017-11-25T19:52:52.302Z,6.30
2017-11-25T19:55:19.747Z,6.30
2017-11-25T19:57:47.978Z,6.40
2017-11-25T20:00:15.432Z,6.30
2017-11-25T20:02:42.902Z,6.30
2017-11-25T20:05:10.372Z,6.30
2017-11-25T20:07:37.862Z,6.30
2017-11-25T20:10:05.383Z,6.30
2017-11-25T20:12:32.876Z,6.10
2017-11-25T20:15:00.362Z,5.90
2017-11-25T20:17:28.611Z,5.60
2017-11-25T20:19:56.066Z,5.60
2017-11-25T20:22:23.554Z,5.60
2017-11-25T20:24:51.007Z,5.50
2017-11-25T20:27:18.495Z,5.40
2017-11-25T20:29:46.734Z,5.40
2017-11-25T20:32:14.200Z,5.40
2017-11-25T20:34:42.184Z,5.30
2017-11-25T20:37:09.805Z,5.10
2017-11-25T20:39:37.259Z,5.00
2017-11-25T20:42:04.726Z,5.00
2017-11-25T20:44:32.210Z,4.90
2017-11-25T20:49:33.508Z,4.80
2017-11-25T20:52:00.962Z,4.60
2017-11-25T20:54:28.423Z,4.60
2017-11-25T20:56:55.886Z,4.60
2017-11-25T20:59:23.427Z,4.50
2017-11-25T21:01:50.898Z,4.40
2017-11-25T21:04:19.257Z,4.20
2017-11-25T21:06:46.791Z,4.20
2017-11-25T21:09:15.040Z,4.40
2017-11-25T21:11:42.495Z,4.40
2017-11-25T21:14:09.961Z,4.50
2017-11-25T21:16:37.460Z,4.50
2017-11-25T21:19:05.701Z,4.30
2017-11-25T21:21:33.162Z,4.30
2017-11-25T21:24:00.626Z,4.40
2017-11-25T21:26:28.085Z,4.30
2017-11-25T21:28:55.552Z,4.40
2017-11-25T21:31:23.071Z,4.40
2017-11-25T21:33:50.540Z,4.60
2017-11-25T21:36:17.985Z,4.60
2017-11-25T21:38:45.450Z,4.50
2017-11-25T21:41:12.958Z,4.40
2017-11-25T21:43:40.639Z,4.40
2017-11-25T21:46:08.104Z,4.40
2017-11-25T21:48:35.545Z,4.50
2017-11-25T21:51:03.011Z,4.60
2017-11-25T21:53:30.485Z,4.80
2017-11-25T21:55:57.937Z,4.70
2017-11-25T21:58:25.433Z,4.80
2017-11-25T22:00:52.912Z,4.90
2017-11-25T22:03:21.137Z,4.80
2017-11-25T22:05:48.602Z,4.80
2017-11-25T22:08:16.057Z,4.60
2017-11-25T22:10:43.522Z,4.80
2017-11-25T22:13:11.002Z,5.00
2017-11-25T22:15:38.491Z,5.10
2017-11-25T22:18:05.970Z,5.10
2017-11-25T22:20:34.261Z,5.10
2017-11-25T22:23:01.710Z,5.10
2017-11-25T22:25:30.221Z,5.20
2017-11-25T22:27:57.669Z,5.10
2017-11-25T22:30:25.151Z,5.20
2017-11-25T22:32:53.390Z,5.20
2017-11-25T22:35:21.630Z,5.20
2017-11-25T22:37:49.107Z,5.20
2017-11-25T22:40:16.617Z,5.20
2017-11-25T22:42:44.095Z,5.20
2017-11-25T22:45:11.551Z,5.20
2017-11-25T22:47:39.044Z,5.20
2017-11-25T22:50:06.514Z,5.20
2017-11-25T22:52:33.976Z,5.10
2017-11-25T22:55:01.510Z,5.10
2017-11-25T22:57:29.023Z,5.00
2017-11-25T22:59:56.518Z,5.00
2017-11-25T23:02:23.970Z,5.10
2017-11-25T23:04:51.438Z,5.10
2017-11-25T23:07:18.901Z,5.10
2017-11-25T23:09:46.383Z,5.00
2017-11-25T23:12:14.624Z,5.00
2017-11-25T23:14:42.099Z,5.00
2017-11-25T23:17:09.596Z,5.00
2017-11-25T23:19:37.049Z,5.00
2017-11-25T23:22:05.347Z,5.00
2017-11-25T23:24:32.891Z,4.90
2017-11-25T23:27:01.131Z,5.00
2017-11-25T23:29:28.615Z,4.90
2017-11-25T23:31:56.103Z,5.00
2017-11-25T23:34:24.323Z,5.00
2017-11-25T23:36:51.872Z,4.90
2017-11-25T23:39:19.684Z,4.90
2017-11-25T23:41:47.165Z,4.90
2017-11-25T23:44:15.419Z,5.10
2017-11-25T23:46:42.885Z,5.10
2017-11-25T23:49:10.366Z,5.10
2017-11-25T23:51:37.844Z,5.00
2017-11-25T23:54:06.053Z,4.90
2017-11-25T23:56:33.538Z,4.90
2017-11-25T23:59:00.997Z,4.80
